Etusivu
METAR-TAF:

METAR-TAF

Lentoasemat :

Nouakchott, Mauritania

Nouakchottin kansainvälinen lentoasema

Leveyspiiri: 18-18-36N, Pituuspiiri: 015-58-11W, korkeus merenpinnasta: 3 m

Tämänhetkinen sää

Tämä raportti tehtiin 30 minuuttia sitten, kello 23.30 UTC
Tuuli 15 kn pohjoisen/luoteesta
Lämpötila 19°C
Kosteus 83%
Ilmanpaine 1012 hPa
Näkyvyys: 8000 m

METAR: GQNO 202330Z 33015KT 8000 NSC 19/16 Q1012 NOSIG

Aika: 00:00 (00:00 UTC)

Sääennuste

Tämä raportti tehtiin 1 tunti ja 0 minuuttia sitten, kello 23.00 UTC
Ennuste voimassa 21. päivästä klo 00 UTC - 22. päivään klo 06 UTC
Tuuli 14 kn pohjoisen/luoteesta
Näkyvyys: 7000 m
Todennäköisyys 30% :
Ajoittain
21. päivästä klo 04 UTC - 21. päivään klo 08 UTC
Hajonneita pilviä 700 ft:n korkeudessa

TAF: GQNO 202300Z 2100/2206 33014KT 7000 NSC PROB30 TEMPO 2104/2108 BKN007

Säähavainnot ja -ennusteet yli 4000 lentoasemalta (METAR- ja TAF-raportit).

Käytössä olevat sääasemat on merkitty karttaan keltaisilla ja punaisilla pisteillä.

Aseta hiiri pisteen päälle nähdäksesi sääaseman nimen.

Klikkaa sitten nähdäksesi säähavainnot ja -ennusteet.

Kartan vaihtaminen: klikkaa mustalla rastilla varustettuja vihreitä pisteitä, niin voit zoomata sisään; viivalla varustettua vihreää pistettä, niin voit zoomata ulos tai vihreitä nuolia, niin pääset viereisille kartoille.


METAR-TAF: